sensor_id;sensor_type;location;lat;lon;timestamp;temperature;humidity
64888;DHT22;51386;53.082;8.816;2022-10-31T00:01:11;18.00;83.10
64888;DHT22;51386;53.082;8.816;2022-10-31T00:03:39;17.90;83.00
64888;DHT22;51386;53.082;8.816;2022-10-31T00:06:07;17.90;83.20
64888;DHT22;51386;53.082;8.816;2022-10-31T00:08:35;17.90;83.40
64888;DHT22;51386;53.082;8.816;2022-10-31T00:11:02;17.90;83.60
64888;DHT22;51386;53.082;8.816;2022-10-31T00:13:29;17.80;83.50
64888;DHT22;51386;53.082;8.816;2022-10-31T00:15:57;17.80;83.60
64888;DHT22;51386;53.082;8.816;2022-10-31T00:18:24;17.80;83.80
64888;DHT22;51386;53.082;8.816;2022-10-31T00:20:58;17.80;83.80
64888;DHT22;51386;53.082;8.816;2022-10-31T00:23:26;17.80;84.10
64888;DHT22;51386;53.082;8.816;2022-10-31T00:25:59;17.80;84.10
64888;DHT22;51386;53.082;8.816;2022-10-31T00:28:27;17.70;84.10
64888;DHT22;51386;53.082;8.816;2022-10-31T00:30:54;17.70;84.20
64888;DHT22;51386;53.082;8.816;2022-10-31T00:33:21;17.70;84.40
64888;DHT22;51386;53.082;8.816;2022-10-31T00:35:49;17.70;84.60
64888;DHT22;51386;53.082;8.816;2022-10-31T00:38:17;17.60;84.70
64888;DHT22;51386;53.082;8.816;2022-10-31T00:40:44;17.60;84.70
64888;DHT22;51386;53.082;8.816;2022-10-31T00:43:12;17.60;84.80
64888;DHT22;51386;53.082;8.816;2022-10-31T00:45:40;17.60;84.90
64888;DHT22;51386;53.082;8.816;2022-10-31T00:48:07;17.60;85.10
64888;DHT22;51386;53.082;8.816;2022-10-31T00:50:35;17.60;85.10
64888;DHT22;51386;53.082;8.816;2022-10-31T00:53:02;17.60;85.10
64888;DHT22;51386;53.082;8.816;2022-10-31T00:55:29;17.60;85.10
64888;DHT22;51386;53.082;8.816;2022-10-31T00:57:56;17.60;85.90
64888;DHT22;51386;53.082;8.816;2022-10-31T01:00:25;17.60;85.10
64888;DHT22;51386;53.082;8.816;2022-10-31T01:02:53;17.60;85.10
64888;DHT22;51386;53.082;8.816;2022-10-31T01:05:20;17.60;85.20
64888;DHT22;51386;53.082;8.816;2022-10-31T01:07:47;17.50;85.10
64888;DHT22;51386;53.082;8.816;2022-10-31T01:10:14;17.50;85.20
64888;DHT22;51386;53.082;8.816;2022-10-31T01:12:44;17.50;85.30
64888;DHT22;51386;53.082;8.816;2022-10-31T01:15:16;17.50;85.50
64888;DHT22;51386;53.082;8.816;2022-10-31T01:17:46;17.50;85.70
64888;DHT22;51386;53.082;8.816;2022-10-31T01:20:14;17.50;85.90
64888;DHT22;51386;53.082;8.816;2022-10-31T01:22:42;17.50;85.90
64888;DHT22;51386;53.082;8.816;2022-10-31T01:25:09;17.40;85.80
64888;DHT22;51386;53.082;8.816;2022-10-31T01:27:37;17.40;85.80
64888;DHT22;51386;53.082;8.816;2022-10-31T01:30:05;17.40;85.70
64888;DHT22;51386;53.082;8.816;2022-10-31T01:32:33;17.40;85.60
64888;DHT22;51386;53.082;8.816;2022-10-31T01:35:01;17.40;85.70
64888;DHT22;51386;53.082;8.816;2022-10-31T01:37:30;17.40;85.70
64888;DHT22;51386;53.082;8.816;2022-10-31T01:39:57;17.30;85.50
64888;DHT22;51386;53.082;8.816;2022-10-31T01:42:24;17.30;85.40
64888;DHT22;51386;53.082;8.816;2022-10-31T01:44:57;17.30;85.40
64888;DHT22;51386;53.082;8.816;2022-10-31T01:47:44;17.30;85.70
64888;DHT22;51386;53.082;8.816;2022-10-31T01:50:24;17.30;85.80
64888;DHT22;51386;53.082;8.816;2022-10-31T01:52:55;17.20;85.60
64888;DHT22;51386;53.082;8.816;2022-10-31T01:55:25;17.20;85.60
64888;DHT22;51386;53.082;8.816;2022-10-31T01:57:59;17.20;85.70
64888;DHT22;51386;53.082;8.816;2022-10-31T02:00:31;17.10;85.70
64888;DHT22;51386;53.082;8.816;2022-10-31T02:02:59;17.10;85.80
64888;DHT22;51386;53.082;8.816;2022-10-31T02:05:29;17.10;86.00
64888;DHT22;51386;53.082;8.816;2022-10-31T02:07:59;17.10;86.20
64888;DHT22;51386;53.082;8.816;2022-10-31T02:10:32;17.10;86.20
64888;DHT22;51386;53.082;8.816;2022-10-31T02:13:03;17.10;86.20
64888;DHT22;51386;53.082;8.816;2022-10-31T02:15:32;17.10;86.40
64888;DHT22;51386;53.082;8.816;2022-10-31T02:17:59;17.10;86.50
64888;DHT22;51386;53.082;8.816;2022-10-31T02:20:32;17.10;86.60
64888;DHT22;51386;53.082;8.816;2022-10-31T02:23:44;17.20;86.40
64888;DHT22;51386;53.082;8.816;2022-10-31T02:30:03;17.20;86.30
64888;DHT22;51386;53.082;8.816;2022-10-31T02:32:46;17.30;86.50
64888;DHT22;51386;53.082;8.816;2022-10-31T02:35:28;17.30;86.30
64888;DHT22;51386;53.082;8.816;2022-10-31T02:38:16;17.30;86.00
64888;DHT22;51386;53.082;8.816;2022-10-31T02:40:56;17.30;85.90
64888;DHT22;51386;53.082;8.816;2022-10-31T02:43:36;17.40;85.50
64888;DHT22;51386;53.082;8.816;2022-10-31T02:46:14;17.40;85.20
64888;DHT22;51386;53.082;8.816;2022-10-31T02:48:48;17.30;85.10
64888;DHT22;51386;53.082;8.816;2022-10-31T02:51:19;17.30;85.50
64888;DHT22;51386;53.082;8.816;2022-10-31T02:53:47;17.30;85.70
64888;DHT22;51386;53.082;8.816;2022-10-31T02:56:16;17.30;85.50
64888;DHT22;51386;53.082;8.816;2022-10-31T02:58:48;17.30;86.10
64888;DHT22;51386;53.082;8.816;2022-10-31T03:04:56;17.30;86.10
64888;DHT22;51386;53.082;8.816;2022-10-31T03:07:47;17.40;85.80
64888;DHT22;51386;53.082;8.816;2022-10-31T03:10:31;17.40;85.20
64888;DHT22;51386;53.082;8.816;2022-10-31T03:13:10;17.30;84.80
64888;DHT22;51386;53.082;8.816;2022-10-31T03:15:45;17.30;84.70
64888;DHT22;51386;53.082;8.816;2022-10-31T03:18:21;17.20;85.70
64888;DHT22;51386;53.082;8.816;2022-10-31T03:20:59;17.10;84.80
64888;DHT22;51386;53.082;8.816;2022-10-31T03:23:32;17.10;85.10
64888;DHT22;51386;53.082;8.816;2022-10-31T03:26:05;17.00;85.30
64888;DHT22;51386;53.082;8.816;2022-10-31T03:28:37;16.90;85.30
64888;DHT22;51386;53.082;8.816;2022-10-31T03:31:11;16.90;85.50
64888;DHT22;51386;53.082;8.816;2022-10-31T03:33:43;16.80;85.80
64888;DHT22;51386;53.082;8.816;2022-10-31T03:36:15;16.80;86.00
64888;DHT22;51386;53.082;8.816;2022-10-31T03:38:46;16.70;86.10
64888;DHT22;51386;53.082;8.816;2022-10-31T03:41:25;16.70;86.20
64888;DHT22;51386;53.082;8.816;2022-10-31T03:43:59;16.60;86.30
64888;DHT22;51386;53.082;8.816;2022-10-31T03:46:29;16.60;86.20
64888;DHT22;51386;53.082;8.816;2022-10-31T03:48:57;16.50;86.40
64888;DHT22;51386;53.082;8.816;2022-10-31T03:51:32;16.50;86.70
64888;DHT22;51386;53.082;8.816;2022-10-31T03:54:10;16.40;86.70
64888;DHT22;51386;53.082;8.816;2022-10-31T03:56:48;16.40;87.10
64888;DHT22;51386;53.082;8.816;2022-10-31T03:59:23;16.30;87.00
64888;DHT22;51386;53.082;8.816;2022-10-31T04:01:57;16.30;87.10
64888;DHT22;51386;53.082;8.816;2022-10-31T04:04:30;16.30;87.40
64888;DHT22;51386;53.082;8.816;2022-10-31T04:07:00;16.20;87.40
64888;DHT22;51386;53.082;8.816;2022-10-31T04:09:33;16.20;88.00
64888;DHT22;51386;53.082;8.816;2022-10-31T04:12:04;16.20;87.90
64888;DHT22;51386;53.082;8.816;2022-10-31T04:14:36;16.20;87.80
64888;DHT22;51386;53.082;8.816;2022-10-31T04:17:09;16.20;87.50
64888;DHT22;51386;53.082;8.816;2022-10-31T04:19:40;16.20;87.50
64888;DHT22;51386;53.082;8.816;2022-10-31T04:22:08;16.20;87.60
64888;DHT22;51386;53.082;8.816;2022-10-31T04:24:37;16.20;87.60
64888;DHT22;51386;53.082;8.816;2022-10-31T04:27:06;16.10;87.50
64888;DHT22;51386;53.082;8.816;2022-10-31T04:29:33;16.10;87.50
64888;DHT22;51386;53.082;8.816;2022-10-31T04:32:00;16.00;87.50
64888;DHT22;51386;53.082;8.816;2022-10-31T04:34:27;16.00;87.60
64888;DHT22;51386;53.082;8.816;2022-10-31T04:36:54;15.90;88.20
64888;DHT22;51386;53.082;8.816;2022-10-31T04:39:23;16.00;88.60
64888;DHT22;51386;53.082;8.816;2022-10-31T04:41:52;16.00;88.00
64888;DHT22;51386;53.082;8.816;2022-10-31T04:44:19;15.90;87.70
64888;DHT22;51386;53.082;8.816;2022-10-31T04:46:46;15.90;87.60
64888;DHT22;51386;53.082;8.816;2022-10-31T04:49:13;15.90;87.60
64888;DHT22;51386;53.082;8.816;2022-10-31T04:51:40;15.80;87.80
64888;DHT22;51386;53.082;8.816;2022-10-31T04:54:07;15.70;87.90
64888;DHT22;51386;53.082;8.816;2022-10-31T04:56:36;15.70;88.30
64888;DHT22;51386;53.082;8.816;2022-10-31T04:59:03;15.60;88.60
64888;DHT22;51386;53.082;8.816;2022-10-31T05:01:30;15.50;88.80
64888;DHT22;51386;53.082;8.816;2022-10-31T05:03:57;15.40;89.10
64888;DHT22;51386;53.082;8.816;2022-10-31T05:06:24;15.40;89.50
64888;DHT22;51386;53.082;8.816;2022-10-31T05:08:51;15.40;89.50
64888;DHT22;51386;53.082;8.816;2022-10-31T05:11:17;15.30;89.70
64888;DHT22;51386;53.082;8.816;2022-10-31T05:13:46;15.30;90.00
64888;DHT22;51386;53.082;8.816;2022-10-31T05:16:13;15.20;90.00
64888;DHT22;51386;53.082;8.816;2022-10-31T05:18:40;15.20;90.10
64888;DHT22;51386;53.082;8.816;2022-10-31T05:21:07;15.20;90.10
64888;DHT22;51386;53.082;8.816;2022-10-31T05:23:34;15.20;90.20
64888;DHT22;51386;53.082;8.816;2022-10-31T05:26:01;15.20;90.40
64888;DHT22;51386;53.082;8.816;2022-10-31T05:28:28;15.20;90.40
64888;DHT22;51386;53.082;8.816;2022-10-31T05:30:56;15.20;90.30
64888;DHT22;51386;53.082;8.816;2022-10-31T05:33:23;15.20;90.60
64888;DHT22;51386;53.082;8.816;2022-10-31T05:35:50;15.30;90.50
64888;DHT22;51386;53.082;8.816;2022-10-31T05:38:17;15.30;90.40
64888;DHT22;51386;53.082;8.816;2022-10-31T05:40:44;15.40;90.50
64888;DHT22;51386;53.082;8.816;2022-10-31T05:43:11;15.40;90.50
64888;DHT22;51386;53.082;8.816;2022-10-31T05:45:38;15.40;90.30
64888;DHT22;51386;53.082;8.816;2022-10-31T05:48:07;15.50;90.30
64888;DHT22;51386;53.082;8.816;2022-10-31T05:50:34;15.50;90.10
64888;DHT22;51386;53.082;8.816;2022-10-31T05:53:03;15.60;90.00
64888;DHT22;51386;53.082;8.816;2022-10-31T05:55:31;15.60;90.00
64888;DHT22;51386;53.082;8.816;2022-10-31T05:57:58;15.60;89.70
64888;DHT22;51386;53.082;8.816;2022-10-31T06:00:27;15.60;89.40
64888;DHT22;51386;53.082;8.816;2022-10-31T06:02:58;15.60;89.30
64888;DHT22;51386;53.082;8.816;2022-10-31T06:05:27;15.60;88.80
64888;DHT22;51386;53.082;8.816;2022-10-31T06:07:54;15.60;88.30
64888;DHT22;51386;53.082;8.816;2022-10-31T06:10:22;15.60;87.90
64888;DHT22;51386;53.082;8.816;2022-10-31T06:12:50;15.50;87.30
64888;DHT22;51386;53.082;8.816;2022-10-31T06:15:17;15.50;87.60
64888;DHT22;51386;53.082;8.816;2022-10-31T06:17:58;15.40;87.40
64888;DHT22;51386;53.082;8.816;2022-10-31T06:20:27;15.30;87.30
64888;DHT22;51386;53.082;8.816;2022-10-31T06:22:55;15.30;87.40
64888;DHT22;51386;53.082;8.816;2022-10-31T06:25:22;15.20;87.40
64888;DHT22;51386;53.082;8.816;2022-10-31T06:27:49;15.10;87.50
64888;DHT22;51386;53.082;8.816;2022-10-31T06:30:16;15.10;87.80
64888;DHT22;51386;53.082;8.816;2022-10-31T06:32:43;15.00;88.20
64888;DHT22;51386;53.082;8.816;2022-10-31T06:35:10;15.00;88.40
64888;DHT22;51386;53.082;8.816;2022-10-31T06:37:39;15.00;89.00
64888;DHT22;51386;53.082;8.816;2022-10-31T06:40:07;15.00;88.70
64888;DHT22;51386;53.082;8.816;2022-10-31T06:42:34;15.00;88.50
64888;DHT22;51386;53.082;8.816;2022-10-31T06:45:01;15.00;88.50
64888;DHT22;51386;53.082;8.816;2022-10-31T06:47:28;15.00;88.90
64888;DHT22;51386;53.082;8.816;2022-10-31T06:49:56;15.00;89.20
64888;DHT22;51386;53.082;8.816;2022-10-31T06:52:23;15.10;89.50
64888;DHT22;51386;53.082;8.816;2022-10-31T06:54:51;15.20;89.50
64888;DHT22;51386;53.082;8.816;2022-10-31T06:57:18;15.20;89.90
64888;DHT22;51386;53.082;8.816;2022-10-31T06:59:45;15.30;89.00
64888;DHT22;51386;53.082;8.816;2022-10-31T07:02:12;15.40;88.50
64888;DHT22;51386;53.082;8.816;2022-10-31T07:04:39;15.40;88.80
64888;DHT22;51386;53.082;8.816;2022-10-31T07:07:06;15.50;88.00
64888;DHT22;51386;53.082;8.816;2022-10-31T07:09:33;15.50;88.00
64888;DHT22;51386;53.082;8.816;2022-10-31T07:12:01;15.60;87.90
64888;DHT22;51386;53.082;8.816;2022-10-31T07:14:28;15.60;87.70
64888;DHT22;51386;53.082;8.816;2022-10-31T07:16:55;15.70;87.50
64888;DHT22;51386;53.082;8.816;2022-10-31T07:19:22;15.70;87.00
64888;DHT22;51386;53.082;8.816;2022-10-31T07:21:49;15.70;86.80
64888;DHT22;51386;53.082;8.816;2022-10-31T07:24:16;15.70;86.60
64888;DHT22;51386;53.082;8.816;2022-10-31T07:26:43;15.60;86.60
64888;DHT22;51386;53.082;8.816;2022-10-31T07:29:13;15.60;86.60
64888;DHT22;51386;53.082;8.816;2022-10-31T07:31:40;15.60;87.30
64888;DHT22;51386;53.082;8.816;2022-10-31T07:34:07;15.60;88.00
64888;DHT22;51386;53.082;8.816;2022-10-31T07:36:34;15.60;88.30
64888;DHT22;51386;53.082;8.816;2022-10-31T07:39:01;15.70;88.50
64888;DHT22;51386;53.082;8.816;2022-10-31T07:41:29;15.80;88.00
64888;DHT22;51386;53.082;8.816;2022-10-31T07:43:56;15.80;87.50
64888;DHT22;51386;53.082;8.816;2022-10-31T07:46:24;15.90;87.40
64888;DHT22;51386;53.082;8.816;2022-10-31T07:48:51;16.00;87.40
64888;DHT22;51386;53.082;8.816;2022-10-31T07:51:18;16.10;87.10
64888;DHT22;51386;53.082;8.816;2022-10-31T07:53:45;16.10;86.40
64888;DHT22;51386;53.082;8.816;2022-10-31T07:56:12;16.20;86.00
64888;DHT22;51386;53.082;8.816;2022-10-31T07:58:39;16.20;85.80
64888;DHT22;51386;53.082;8.816;2022-10-31T08:01:06;16.30;85.80
64888;DHT22;51386;53.082;8.816;2022-10-31T08:03:34;16.40;85.70
64888;DHT22;51386;53.082;8.816;2022-10-31T08:06:01;16.40;85.40
64888;DHT22;51386;53.082;8.816;2022-10-31T08:08:28;16.50;85.30
64888;DHT22;51386;53.082;8.816;2022-10-31T08:11:00;16.50;84.70
64888;DHT22;51386;53.082;8.816;2022-10-31T08:13:27;16.50;83.50
64888;DHT22;51386;53.082;8.816;2022-10-31T08:15:54;16.50;83.60
64888;DHT22;51386;53.082;8.816;2022-10-31T08:18:22;16.50;83.20
64888;DHT22;51386;53.082;8.816;2022-10-31T08:20:51;16.40;83.20
64888;DHT22;51386;53.082;8.816;2022-10-31T08:23:20;16.40;83.90
64888;DHT22;51386;53.082;8.816;2022-10-31T08:25:47;16.30;84.20
64888;DHT22;51386;53.082;8.816;2022-10-31T08:28:14;16.40;84.70
64888;DHT22;51386;53.082;8.816;2022-10-31T08:30:41;16.40;84.60
64888;DHT22;51386;53.082;8.816;2022-10-31T08:33:11;16.40;84.40
64888;DHT22;51386;53.082;8.816;2022-10-31T08:35:40;16.50;83.70
64888;DHT22;51386;53.082;8.816;2022-10-31T08:38:09;16.50;83.40
64888;DHT22;51386;53.082;8.816;2022-10-31T08:40:38;16.50;83.40
64888;DHT22;51386;53.082;8.816;2022-10-31T08:43:12;16.50;83.50
64888;DHT22;51386;53.082;8.816;2022-10-31T08:45:42;16.50;83.40
64888;DHT22;51386;53.082;8.816;2022-10-31T08:48:11;16.50;83.20
64888;DHT22;51386;53.082;8.816;2022-10-31T08:50:40;16.50;83.30
64888;DHT22;51386;53.082;8.816;2022-10-31T08:53:11;16.50;83.60
64888;DHT22;51386;53.082;8.816;2022-10-31T08:55:40;16.60;83.60
64888;DHT22;51386;53.082;8.816;2022-10-31T08:58:11;16.60;83.30
64888;DHT22;51386;53.082;8.816;2022-10-31T09:00:40;16.60;82.70
64888;DHT22;51386;53.082;8.816;2022-10-31T09:03:12;16.60;82.20
64888;DHT22;51386;53.082;8.816;2022-10-31T09:05:40;16.70;82.00
64888;DHT22;51386;53.082;8.816;2022-10-31T09:08:09;16.60;81.60
64888;DHT22;51386;53.082;8.816;2022-10-31T09:10:43;16.60;81.50
64888;DHT22;51386;53.082;8.816;2022-10-31T09:13:12;16.60;82.10
64888;DHT22;51386;53.082;8.816;2022-10-31T09:15:42;16.70;82.60
64888;DHT22;51386;53.082;8.816;2022-10-31T09:18:12;16.80;83.00
64888;DHT22;51386;53.082;8.816;2022-10-31T09:20:41;16.90;83.00
64888;DHT22;51386;53.082;8.816;2022-10-31T09:23:11;17.00;82.80
64888;DHT22;51386;53.082;8.816;2022-10-31T09:25:41;17.10;82.50
64888;DHT22;51386;53.082;8.816;2022-10-31T09:28:18;17.20;82.20
64888;DHT22;51386;53.082;8.816;2022-10-31T09:30:47;17.40;82.00
64888;DHT22;51386;53.082;8.816;2022-10-31T09:33:15;17.50;81.40
64888;DHT22;51386;53.082;8.816;2022-10-31T09:35:43;17.60;80.80
64888;DHT22;51386;53.082;8.816;2022-10-31T09:38:13;17.60;80.80
64888;DHT22;51386;53.082;8.816;2022-10-31T09:40:43;17.60;80.40
64888;DHT22;51386;53.082;8.816;2022-10-31T09:43:15;17.60;80.40
64888;DHT22;51386;53.082;8.816;2022-10-31T09:45:57;17.60;80.60
64888;DHT22;51386;53.082;8.816;2022-10-31T09:48:37;17.60;80.70
64888;DHT22;51386;53.082;8.816;2022-10-31T09:51:16;17.70;80.90
64888;DHT22;51386;53.082;8.816;2022-10-31T09:53:51;17.80;80.80
64888;DHT22;51386;53.082;8.816;2022-10-31T09:56:22;17.90;80.70
64888;DHT22;51386;53.082;8.816;2022-10-31T09:58:54;18.00;80.60
64888;DHT22;51386;53.082;8.816;2022-10-31T10:01:37;18.10;80.50
64888;DHT22;51386;53.082;8.816;2022-10-31T10:04:32;18.30;80.50
64888;DHT22;51386;53.082;8.816;2022-10-31T10:07:15;18.50;80.40
64888;DHT22;51386;53.082;8.816;2022-10-31T10:09:49;18.80;80.00
64888;DHT22;51386;53.082;8.816;2022-10-31T10:12:22;19.10;78.90
64888;DHT22;51386;53.082;8.816;2022-10-31T10:15:17;19.30;78.00
64888;DHT22;51386;53.082;8.816;2022-10-31T10:17:59;19.40;76.90
64888;DHT22;51386;53.082;8.816;2022-10-31T10:20:38;19.50;76.40
64888;DHT22;51386;53.082;8.816;2022-10-31T10:23:31;19.60;75.90
64888;DHT22;51386;53.082;8.816;2022-10-31T10:26:15;19.60;75.60
64888;DHT22;51386;53.082;8.816;2022-10-31T10:28:48;19.70;75.30
64888;DHT22;51386;53.082;8.816;2022-10-31T10:31:23;19.60;75.00
64888;DHT22;51386;53.082;8.816;2022-10-31T10:34:11;19.60;75.20
64888;DHT22;51386;53.082;8.816;2022-10-31T10:36:48;19.50;75.50
64888;DHT22;51386;53.082;8.816;2022-10-31T10:39:23;19.50;75.60
64888;DHT22;51386;53.082;8.816;2022-10-31T10:41:58;19.40;75.80
64888;DHT22;51386;53.082;8.816;2022-10-31T10:44:47;19.40;76.00
64888;DHT22;51386;53.082;8.816;2022-10-31T10:47:39;19.30;76.20
64888;DHT22;51386;53.082;8.816;2022-10-31T10:50:13;19.30;76.60
64888;DHT22;51386;53.082;8.816;2022-10-31T10:52:50;19.40;77.20
64888;DHT22;51386;53.082;8.816;2022-10-31T10:55:35;19.40;77.20
64888;DHT22;51386;53.082;8.816;2022-10-31T10:58:09;19.60;76.90
64888;DHT22;51386;53.082;8.816;2022-10-31T11:00:40;19.70;76.90
64888;DHT22;51386;53.082;8.816;2022-10-31T11:03:09;19.80;76.10
64888;DHT22;51386;53.082;8.816;2022-10-31T11:05:39;20.00;75.50
64888;DHT22;51386;53.082;8.816;2022-10-31T11:08:23;20.10;75.00
64888;DHT22;51386;53.082;8.816;2022-10-31T11:10:58;20.20;74.40
64888;DHT22;51386;53.082;8.816;2022-10-31T11:13:29;20.30;74.50
64888;DHT22;51386;53.082;8.816;2022-10-31T11:16:00;20.40;73.50
64888;DHT22;51386;53.082;8.816;2022-10-31T11:18:31;20.50;73.20
64888;DHT22;51386;53.082;8.816;2022-10-31T11:21:02;20.50;73.10
64888;DHT22;51386;53.082;8.816;2022-10-31T11:23:31;20.40;72.60
64888;DHT22;51386;53.082;8.816;2022-10-31T11:26:01;20.30;72.40
64888;DHT22;51386;53.082;8.816;2022-10-31T11:28:33;20.20;72.30
64888;DHT22;51386;53.082;8.816;2022-10-31T11:31:07;20.10;73.40
64888;DHT22;51386;53.082;8.816;2022-10-31T11:33:44;20.00;73.10
64888;DHT22;51386;53.082;8.816;2022-10-31T11:36:16;19.90;73.60
64888;DHT22;51386;53.082;8.816;2022-10-31T11:38:48;19.80;74.20
64888;DHT22;51386;53.082;8.816;2022-10-31T11:41:17;19.70;74.40
64888;DHT22;51386;53.082;8.816;2022-10-31T11:43:50;19.70;74.70
64888;DHT22;51386;53.082;8.816;2022-10-31T11:46:22;19.60;74.80
64888;DHT22;51386;53.082;8.816;2022-10-31T11:48:57;19.60;75.00
64888;DHT22;51386;53.082;8.816;2022-10-31T11:51:26;19.50;74.80
64888;DHT22;51386;53.082;8.816;2022-10-31T11:53:58;19.50;75.20
64888;DHT22;51386;53.082;8.816;2022-10-31T11:56:38;19.40;75.70
64888;DHT22;51386;53.082;8.816;2022-10-31T11:59:18;19.40;76.10
64888;DHT22;51386;53.082;8.816;2022-10-31T12:01:50;19.40;76.30
64888;DHT22;51386;53.082;8.816;2022-10-31T12:04:18;19.30;76.00
64888;DHT22;51386;53.082;8.816;2022-10-31T12:06:51;19.20;76.20
64888;DHT22;51386;53.082;8.816;2022-10-31T12:09:21;19.20;76.60
64888;DHT22;51386;53.082;8.816;2022-10-31T12:12:11;19.20;77.00
64888;DHT22;51386;53.082;8.816;2022-10-31T12:14:59;19.20;77.60
64888;DHT22;51386;53.082;8.816;2022-10-31T12:17:42;19.20;78.20
64888;DHT22;51386;53.082;8.816;2022-10-31T12:20:22;19.20;78.20
64888;DHT22;51386;53.082;8.816;2022-10-31T12:23:00;19.20;78.00
64888;DHT22;51386;53.082;8.816;2022-10-31T12:25:39;19.10;77.70
64888;DHT22;51386;53.082;8.816;2022-10-31T12:28:39;19.10;77.60
64888;DHT22;51386;53.082;8.816;2022-10-31T12:31:34;19.10;77.60
64888;DHT22;51386;53.082;8.816;2022-10-31T12:37:37;18.90;78.00
64888;DHT22;51386;53.082;8.816;2022-10-31T12:40:36;18.80;78.50
64888;DHT22;51386;53.082;8.816;2022-10-31T12:43:24;18.70;78.70
64888;DHT22;51386;53.082;8.816;2022-10-31T12:46:03;18.60;78.90
64888;DHT22;51386;53.082;8.816;2022-10-31T12:48:59;18.60;79.10
64888;DHT22;51386;53.082;8.816;2022-10-31T12:51:49;18.60;79.50
64888;DHT22;51386;53.082;8.816;2022-10-31T12:54:41;18.60;79.60
64888;DHT22;51386;53.082;8.816;2022-10-31T12:57:23;18.60;79.90
64888;DHT22;51386;53.082;8.816;2022-10-31T13:00:00;18.60;79.80
64888;DHT22;51386;53.082;8.816;2022-10-31T13:02:33;18.60;79.50
64888;DHT22;51386;53.082;8.816;2022-10-31T13:05:13;18.60;79.50
64888;DHT22;51386;53.082;8.816;2022-10-31T13:07:49;18.60;79.30
64888;DHT22;51386;53.082;8.816;2022-10-31T13:10:25;18.60;79.30
64888;DHT22;51386;53.082;8.816;2022-10-31T13:13:02;18.60;79.30
64888;DHT22;51386;53.082;8.816;2022-10-31T13:15:41;18.60;79.30
64888;DHT22;51386;53.082;8.816;2022-10-31T13:18:25;18.50;79.30
64888;DHT22;51386;53.082;8.816;2022-10-31T13:21:01;18.50;79.40
64888;DHT22;51386;53.082;8.816;2022-10-31T13:23:33;18.40;79.70
64888;DHT22;51386;53.082;8.816;2022-10-31T13:26:22;18.40;80.10
64888;DHT22;51386;53.082;8.816;2022-10-31T13:29:09;18.30;80.20
64888;DHT22;51386;53.082;8.816;2022-10-31T13:31:42;18.30;80.20
64888;DHT22;51386;53.082;8.816;2022-10-31T13:34:18;18.20;80.30
64888;DHT22;51386;53.082;8.816;2022-10-31T13:37:01;18.30;80.40
64888;DHT22;51386;53.082;8.816;2022-10-31T13:39:49;18.20;80.50
64888;DHT22;51386;53.082;8.816;2022-10-31T13:42:45;18.30;80.70
64888;DHT22;51386;53.082;8.816;2022-10-31T13:45:21;18.30;80.70
64888;DHT22;51386;53.082;8.816;2022-10-31T13:47:58;18.20;80.40
64888;DHT22;51386;53.082;8.816;2022-10-31T13:50:29;18.30;80.60
64888;DHT22;51386;53.082;8.816;2022-10-31T13:53:11;18.30;80.50
64888;DHT22;51386;53.082;8.816;2022-10-31T13:55:42;18.30;80.50
64888;DHT22;51386;53.082;8.816;2022-10-31T13:58:22;18.30;80.50
64888;DHT22;51386;53.082;8.816;2022-10-31T14:01:02;18.30;80.60
64888;DHT22;51386;53.082;8.816;2022-10-31T14:03:40;18.30;80.60
64888;DHT22;51386;53.082;8.816;2022-10-31T14:06:40;18.30;80.60
64888;DHT22;51386;53.082;8.816;2022-10-31T14:09:26;18.40;80.60
64888;DHT22;51386;53.082;8.816;2022-10-31T14:11:57;18.40;80.60
64888;DHT22;51386;53.082;8.816;2022-10-31T14:14:33;18.40;80.50
64888;DHT22;51386;53.082;8.816;2022-10-31T14:17:17;18.40;80.40
64888;DHT22;51386;53.082;8.816;2022-10-31T14:19:59;18.50;80.40
64888;DHT22;51386;53.082;8.816;2022-10-31T14:22:32;18.50;80.40
64888;DHT22;51386;53.082;8.816;2022-10-31T14:25:26;18.50;80.30
64888;DHT22;51386;53.082;8.816;2022-10-31T14:27:56;18.50;80.40
64888;DHT22;51386;53.082;8.816;2022-10-31T14:30:27;18.40;80.40
64888;DHT22;51386;53.082;8.816;2022-10-31T14:32:57;18.40;80.60
64888;DHT22;51386;53.082;8.816;2022-10-31T14:35:50;18.40;80.60
64888;DHT22;51386;53.082;8.816;2022-10-31T14:38:32;18.40;80.80
64888;DHT22;51386;53.082;8.816;2022-10-31T14:41:25;18.40;80.80
64888;DHT22;51386;53.082;8.816;2022-10-31T14:44:30;18.40;81.00
64888;DHT22;51386;53.082;8.816;2022-10-31T14:47:31;18.40;81.30
64888;DHT22;51386;53.082;8.816;2022-10-31T14:50:20;18.30;81.20
64888;DHT22;51386;53.082;8.816;2022-10-31T14:53:00;18.40;81.40
64888;DHT22;51386;53.082;8.816;2022-10-31T14:55:29;18.30;81.30
64888;DHT22;51386;53.082;8.816;2022-10-31T14:58:01;18.30;81.40
64888;DHT22;51386;53.082;8.816;2022-10-31T15:00:33;18.30;81.50
64888;DHT22;51386;53.082;8.816;2022-10-31T15:03:12;18.30;81.50
64888;DHT22;51386;53.082;8.816;2022-10-31T15:05:46;18.30;81.60
64888;DHT22;51386;53.082;8.816;2022-10-31T15:08:29;18.30;81.50
64888;DHT22;51386;53.082;8.816;2022-10-31T15:11:03;18.30;81.50
64888;DHT22;51386;53.082;8.816;2022-10-31T15:13:43;18.30;81.40
64888;DHT22;51386;53.082;8.816;2022-10-31T15:16:16;18.30;81.40
64888;DHT22;51386;53.082;8.816;2022-10-31T15:18:49;18.30;81.40
64888;DHT22;51386;53.082;8.816;2022-10-31T15:21:21;18.30;81.30
64888;DHT22;51386;53.082;8.816;2022-10-31T15:23:51;18.30;81.50
64888;DHT22;51386;53.082;8.816;2022-10-31T15:26:21;18.20;81.40
64888;DHT22;51386;53.082;8.816;2022-10-31T15:29:02;18.20;81.50
64888;DHT22;51386;53.082;8.816;2022-10-31T15:31:31;18.20;81.60
64888;DHT22;51386;53.082;8.816;2022-10-31T15:34:03;18.20;81.80
64888;DHT22;51386;53.082;8.816;2022-10-31T15:36:33;18.10;81.80
64888;DHT22;51386;53.082;8.816;2022-10-31T15:39:04;18.10;81.90
64888;DHT22;51386;53.082;8.816;2022-10-31T15:41:34;18.10;82.00
64888;DHT22;51386;53.082;8.816;2022-10-31T15:44:13;18.10;82.80
64888;DHT22;51386;53.082;8.816;2022-10-31T15:46:43;18.10;82.10
64888;DHT22;51386;53.082;8.816;2022-10-31T15:49:26;18.10;82.00
64888;DHT22;51386;53.082;8.816;2022-10-31T15:52:06;18.10;82.20
64888;DHT22;51386;53.082;8.816;2022-10-31T15:54:45;18.00;82.10
64888;DHT22;51386;53.082;8.816;2022-10-31T15:57:15;18.00;82.10
64888;DHT22;51386;53.082;8.816;2022-10-31T15:59:46;18.00;82.00
64888;DHT22;51386;53.082;8.816;2022-10-31T16:02:18;18.00;82.10
64888;DHT22;51386;53.082;8.816;2022-10-31T16:04:53;17.90;82.10
64888;DHT22;51386;53.082;8.816;2022-10-31T16:07:22;17.90;82.20
64888;DHT22;51386;53.082;8.816;2022-10-31T16:09:52;17.90;82.10
64888;DHT22;51386;53.082;8.816;2022-10-31T16:12:22;17.80;82.20
64888;DHT22;51386;53.082;8.816;2022-10-31T16:14:53;17.80;82.30
64888;DHT22;51386;53.082;8.816;2022-10-31T16:17:23;17.80;82.40